Mechanicsville, IA (52306)

8:49 PM CDT on May 05, 2015 (GMT -0500)
KIALISBO2 | | Change Station
CLOSE
Current Station
Personal Weather Station
Location: Lisbon, IA
Elevation: 856 ft
Nearby Weather Stations

Elev 856 ft 41.92 °N, 91.39 °W | Updated 2 minutes ago

Overcast
Overcast
58.6 °F
Feels Like 58.6 °F
N
6.3
Wind Variable Wind from ESE

Today
High -- | Low -- °F
--% Chance of Precip.
Yesterday
High -- | Low -- °F
Precip. -- in
5:56 AM 8:07 PM
Waning Gibbous, 96% visible
Pressure 30.15 in
Visibility 8.0 miles
Clouds Overcast 700 ft
Dew Point 58 °F
Humidity 97%
Rainfall 0.74 in
Snow Depth Not available.
UV 0 out of 12
Pollen 3.30 out of 12
Air Quality Not available.
Flu Activity Local Activity
METAR KMXO 060135Z AUTO 08006KT 8SM OVC007 15/15 A3015 RMK AO2

More Conditions Fewer Conditions

Pressure 30.15 in
Visibility 8.0 miles
Clouds Overcast 700 ft
Dew Point 58 °F
Humidity 97%
Rainfall 0.74 in
Snow Depth Not available.
UV 0 out of 12
Pollen 3.30 out of 12
Air Quality Not available.
Flu Activity Local Activity
METAR KMXO 060135Z AUTO 08006KT 8SM OVC007 15/15 A3015 RMK AO2

More Conditions Fewer Conditions

10-Day Weather Forecast

Almanac

Astronomy

May. 05, 2015 Rise Set
Actual Time
Civil Twilight
Nautical Twilight
Astronomical Twilight
Moon
Length of Visible Light
Length of Day
Tomorrow will be .
, % of the Moon is Illuminated

Today's Extremes

State Highs State Lows

Community

WunderPhotos

Upload Photos

1,819,036 photos uploaded!

WunderBlogs® & News

Nearby

Air Quality

  Air Quality AQ Index Pollutant
Not available.

Snow Depth

Station Depth Elevation

Earthquake Activity

City Distance Mag. Time & Date
Minimum magnitude displayed is 2.5.

Coastal Water Temperatures

Place Temperature

Stations

Nearby Weather Stations

Station Location Temp. Windchill Dew Point Humidity Wind Precip. Elev Updated Type